Time;durP1;ratioP1;P1;durP2;ratioP2;P2;SDS_P1;SDS_P2;PMS_P1;PMS_P2;Temp;Humidity;BMP_temperature;BMP_pressure;BME280_temperature;BME280_humidity;BME280_pressure;Samples;Min_cycle;Max_cycle;Signal;HPM_P1;HPM_P2
2022/12/12 00:00:58;;;;;;;33.10;15.40;;;;;;;-4.02;92.90;97125.02;103256;1288;24275;-71
2022/12/12 00:03:25;;;;;;;32.80;15.90;;;;;;;-4.02;93.46;97122.11;103005;1292;138844;-71
2022/12/12 00:05:54;;;;;;;37.30;17.10;;;;;;;-4.01;93.11;97122.09;103195;1293;22549;-71
2022/12/12 00:08:21;;;;;;;30.70;16.10;;;;;;;-4.02;93.67;97117.33;103404;1310;139282;-72
2022/12/12 00:10:48;;;;;;;33.80;16.80;;;;;;;-4.03;93.41;97116.02;103261;1312;25432;-72
2022/12/12 00:13:15;;;;;;;36.10;17.60;;;;;;;-4.01;93.38;97120.98;103144;1289;22652;-72
2022/12/12 00:15:41;;;;;;;36.50;17.70;;;;;;;-3.98;93.69;97114.46;103089;1313;138813;-71
2022/12/12 00:18:08;;;;;;;37.50;17.90;;;;;;;-3.97;94.06;97114.48;103278;1304;24249;-71
2022/12/12 00:20:35;;;;;;;36.70;18.50;;;;;;;-3.96;93.52;97109.74;103135;1287;139081;-72
2022/12/12 00:23:02;;;;;;;35.40;18.40;;;;;;;-3.95;93.78;97111.76;103183;1313;22786;-71
2022/12/12 00:25:29;;;;;;;36.50;18.30;;;;;;;-3.94;93.72;97112.85;103166;1293;138485;-71
2022/12/12 00:27:56;;;;;;;40.90;19.80;;;;;;;-3.93;93.80;97108.27;103470;1297;23876;-72
2022/12/12 00:30:23;;;;;;;38.60;18.60;;;;;;;-3.93;93.69;97105.66;103297;1306;22520;-71
2022/12/12 00:32:49;;;;;;;40.70;17.90;;;;;;;-3.92;93.81;97107.09;103230;1311;138987;-72
2022/12/12 00:35:17;;;;;;;39.80;19.90;;;;;;;-3.91;93.81;97109.15;103357;1312;25318;-71
2022/12/12 00:37:44;;;;;;;41.40;18.40;;;;;;;-3.91;93.90;97105.09;103241;1287;138334;-72
2022/12/12 00:40:12;;;;;;;41.80;20.00;;;;;;;-3.90;94.00;97108.14;103142;1310;24879;-72
2022/12/12 00:42:39;;;;;;;42.50;19.00;;;;;;;-3.90;93.91;97102.83;103348;1312;24323;-71
2022/12/12 00:45:06;;;;;;;41.60;19.70;;;;;;;-3.90;94.20;97102.79;103144;1302;138424;-72
2022/12/12 00:47:34;;;;;;;43.60;18.90;;;;;;;-3.90;94.43;97103.35;103167;1303;25798;-71
2022/12/12 00:50:01;;;;;;;42.30;20.40;;;;;;;-3.90;94.10;97101.42;103159;1312;138911;-72
2022/12/12 00:52:27;;;;;;;37.80;19.20;;;;;;;-3.90;94.02;97101.91;103129;1303;25279;-71
2022/12/12 00:54:54;;;;;;;39.30;18.10;;;;;;;-3.90;94.17;97100.36;103177;1287;24376;-71
2022/12/12 00:57:21;;;;;;;43.70;20.00;;;;;;;-3.90;94.42;97098.60;103286;1290;138421;-72
2022/12/12 00:59:48;;;;;;;39.30;19.20;;;;;;;-3.91;94.47;97096.02;103290;1292;22616;-71
2022/12/12 01:02:15;;;;;;;38.60;17.80;;;;;;;-3.92;94.25;97101.24;103194;1288;138381;-72
2022/12/12 01:04:41;;;;;;;40.30;17.50;;;;;;;-3.91;94.45;97101.23;103432;1310;25322;-72
2022/12/12 01:07:08;;;;;;;36.50;18.20;;;;;;;-3.93;94.28;97100.00;103164;1299;22976;-72
2022/12/12 01:09:35;;;;;;;37.20;18.00;;;;;;;-3.93;94.43;97098.98;103065;1289;138239;-71
2022/12/12 01:12:02;;;;;;;37.50;18.30;;;;;;;-3.94;94.57;97094.09;103262;1293;22505;-72
2022/12/12 01:14:29;;;;;;;39.60;19.00;;;;;;;-3.94;94.68;97089.28;103125;1290;138205;-72
2022/12/12 01:16:56;;;;;;;37.70;17.80;;;;;;;-3.93;94.86;97087.38;103275;1303;22488;-72
2022/12/12 01:19:22;;;;;;;39.80;18.20;;;;;;;-3.92;94.82;97087.48;103191;1304;22543;-72
2022/12/12 01:21:50;;;;;;;37.90;18.80;;;;;;;-3.91;94.80;97088.08;103088;1312;138580;-72
2022/12/12 01:24:17;;;;;;;41.00;18.20;;;;;;;-3.91;94.77;97086.30;103360;1312;22532;-72
2022/12/12 01:26:44;;;;;;;40.90;18.40;;;;;;;-3.91;94.50;97088.00;103094;1312;139017;-71
2022/12/12 01:29:11;;;;;;;38.00;18.50;;;;;;;-3.91;94.60;97084.19;103151;1290;22488;-72
2022/12/12 01:31:38;;;;;;;36.00;18.20;;;;;;;-3.90;94.70;97083.58;103028;1313;138427;-72
2022/12/12 01:34:05;;;;;;;38.70;18.00;;;;;;;-3.90;94.53;97080.19;103182;1302;24240;-72
2022/12/12 01:36:32;;;;;;;36.50;17.40;;;;;;;-3.90;94.86;97077.30;103374;1303;22478;-72
2022/12/12 01:38:59;;;;;;;43.10;18.50;;;;;;;-3.90;95.09;97074.66;103149;1303;138397;-72
2022/12/12 01:41:26;;;;;;;39.60;17.80;;;;;;;-3.90;94.77;97072.38;103250;1304;25212;-72
2022/12/12 01:43:54;;;;;;;39.30;19.40;;;;;;;-3.90;94.60;97074.64;103549;1312;140337;-72
2022/12/12 01:46:20;;;;;;;39.90;19.30;;;;;;;-3.89;94.54;97076.65;102968;1312;24341;-72
2022/12/12 01:49:08;;;;;;;42.60;19.50;;;;;;;-3.89;94.73;97076.79;103195;1303;22502;-72
2022/12/12 01:51:39;;;;;;;37.80;18.10;;;;;;;-3.89;94.96;97075.02;103156;1312;138423;-72
2022/12/12 01:54:22;;;;;;;40.00;17.40;;;;;;;-3.89;94.75;97072.23;103497;1287;23718;-72
2022/12/12 01:56:51;;;;;;;32.70;15.80;;;;;;;-3.90;94.60;97067.95;103079;1288;138270;-72
2022/12/12 01:59:23;;;;;;;42.00;17.80;;;;;;;-3.90;94.76;97069.52;103701;1295;22504;-72
2022/12/12 02:01:51;;;;;;;39.80;17.20;;;;;;;-3.89;95.02;97071.58;103150;1306;138476;-72
2022/12/12 02:04:20;;;;;;;39.70;18.60;;;;;;;-3.89;94.93;97069.94;103183;1302;27027;-72
2022/12/12 02:06:49;;;;;;;37.90;16.70;;;;;;;-3.89;95.00;97073.30;103554;1295;26625;-72
2022/12/12 02:09:19;;;;;;;39.00;18.00;;;;;;;-3.89;95.19;97070.30;103127;1311;138243;-72
2022/12/12 02:11:49;;;;;;;42.30;17.50;;;;;;;-3.89;95.01;97068.55;103259;1293;22497;-72
2022/12/12 02:14:21;;;;;;;39.70;17.50;;;;;;;-3.89;94.87;97067.41;103187;1285;139920;-72
2022/12/12 02:16:59;;;;;;;39.00;16.50;;;;;;;-3.89;95.12;97063.35;103259;1312;22483;-72
2022/12/12 02:19:55;;;;;;;39.20;18.10;;;;;;;-3.89;94.95;97068.80;103214;1291;22532;-72
2022/12/12 02:22:44;;;;;;;35.80;16.60;;;;;;;-3.89;95.31;97069.73;102546;1294;22496;-72
2022/12/12 02:25:45;;;;;;;33.30;14.40;;;;;;;-3.89;95.25;97073.10;102439;1310;25404;-72
2022/12/12 02:28:40;;;;;;;32.90;16.20;;;;;;;-3.91;95.22;97067.66;102470;1309;23928;-72
2022/12/12 02:31:21;;;;;;;37.60;15.90;;;;;;;-3.92;95.18;97068.91;102521;1307;25305;-73
2022/12/12 02:34:18;;;;;;;32.30;15.10;;;;;;;-3.95;95.33;97069.88;102403;1293;140090;-73
2022/12/12 02:37:28;;;;;;;33.60;14.80;;;;;;;-3.96;94.68;97069.73;102565;1317;22515;-72
2022/12/12 02:40:14;;;;;;;38.00;14.90;;;;;;;-3.98;94.88;97068.20;101653;1325;139181;-73
2022/12/12 02:43:10;;;;;;;38.60;16.40;;;;;;;-3.99;95.03;97070.31;101925;1320;23324;-72
2022/12/12 02:45:39;;;;;;;32.90;15.50;;;;;;;-4.00;95.34;97070.55;101730;1312;139127;-73
2022/12/12 02:48:29;;;;;;;32.50;15.10;;;;;;;-4.01;95.21;97069.54;101937;1306;22497;-73
2022/12/12 02:50:59;;;;;;;30.80;13.90;;;;;;;-4.01;95.52;97070.05;101733;1318;138986;-73
2022/12/12 02:53:26;;;;;;;32.50;14.00;;;;;;;-4.02;95.20;97067.91;101793;1295;22505;-73
2022/12/12 02:56:04;;;;;;;33.50;15.20;;;;;;;-4.03;95.23;97060.63;101789;1309;140152;-73
2022/12/12 02:58:33;;;;;;;33.80;15.20;;;;;;;-4.03;95.17;97059.73;101749;1304;24275;-73
2022/12/12 03:01:17;;;;;;;29.40;13.60;;;;;;;-4.04;95.21;97060.53;102314;1320;23369;-73
2022/12/12 03:10:00;;;;;;;28.90;14.30;;;;;;;-4.03;95.44;97064.14;102485;1304;138453;-70
2022/12/12 03:12:49;;;;;;;30.70;14.80;;;;;;;-4.03;95.22;97065.73;102323;1306;25284;-70
2022/12/12 03:15:25;;;;;;;36.00;15.70;;;;;;;-4.04;95.42;97059.80;102965;1303;138550;-71
2022/12/12 03:18:13;;;;;;;35.30;15.40;;;;;;;-4.05;95.13;97064.20;103275;1282;22498;-71
2022/12/12 03:20:58;;;;;;;30.10;14.20;;;;;;;-4.05;95.23;97060.52;103892;1294;140378;-71
2022/12/12 03:23:32;;;;;;;35.70;14.60;;;;;;;-4.05;95.41;97064.36;103370;1291;25260;-71
2022/12/12 03:26:10;;;;;;;30.00;16.50;;;;;;;-4.05;95.26;97060.10;103082;1297;138444;-71
2022/12/12 03:28:53;;;;;;;31.20;14.70;;;;;;;-4.05;95.24;97059.11;103241;1292;25350;-71
2022/12/12 03:31:28;;;;;;;35.10;15.00;;;;;;;-4.05;95.20;97054.87;103304;1298;22529;-71
2022/12/12 03:33:59;;;;;;;32.80;15.70;;;;;;;-4.04;95.25;97057.75;103106;1312;139560;-71
2022/12/12 03:37:01;;;;;;;36.20;15.60;;;;;;;-4.05;95.44;97056.73;103067;1286;22473;-71
2022/12/12 03:39:43;;;;;;;34.60;15.70;;;;;;;-4.04;95.35;97056.30;102578;1311;139397;-72
2022/12/12 03:42:34;;;;;;;27.10;12.80;;;;;;;-4.04;95.08;97060.18;102412;1311;24263;-72
2022/12/12 03:45:10;;;;;;;34.60;14.60;;;;;;;-4.04;95.53;97057.71;102571;1319;138716;-72
2022/12/12 03:48:17;;;;;;;34.60;15.00;;;;;;;-4.04;95.24;97057.02;102485;1305;22544;-72
2022/12/12 03:50:53;;;;;;;34.80;15.00;;;;;;;-4.04;95.52;97062.34;102324;1310;138376;-72
2022/12/12 03:53:32;;;;;;;35.20;15.50;;;;;;;-4.03;94.97;97063.69;102394;1315;23369;-72
2022/12/12 03:56:11;;;;;;;31.50;15.40;;;;;;;-4.04;95.38;97061.55;102260;1318;139202;-73
2022/12/12 03:59:12;;;;;;;33.50;15.30;;;;;;;-4.04;95.04;97063.70;102381;1318;22492;-72
2022/12/12 04:01:51;;;;;;;30.00;15.00;;;;;;;-4.04;95.46;97064.79;102427;1304;22468;-72
2022/12/12 04:04:48;;;;;;;30.70;15.40;;;;;;;-4.03;95.11;97066.48;102386;1305;22605;-72
2022/12/12 04:07:23;;;;;;;29.00;13.50;;;;;;;-4.03;95.11;97063.81;102315;1313;22480;-72
2022/12/12 04:15:52;;;;;;;26.80;13.10;;;;;;;-4.03;95.22;97063.86;102394;1313;138714;-72
2022/12/12 04:18:39;;;;;;;33.40;15.10;;;;;;;-4.05;94.82;97064.02;103049;1309;24428;-72
2022/12/12 04:24:06;;;;;;;28.50;13.20;;;;;;;-4.07;95.28;97056.98;103057;1287;22674;-72
2022/12/12 04:26:43;;;;;;;26.80;12.60;;;;;;;-4.07;95.15;97060.17;103007;1312;138292;-72
2022/12/12 04:29:36;;;;;;;30.00;14.40;;;;;;;-4.07;94.87;97052.38;102950;1303;24321;-72
2022/12/12 04:32:13;;;;;;;30.40;14.00;;;;;;;-4.07;95.26;97056.98;102993;1299;139925;-72
2022/12/12 04:35:09;;;;;;;32.40;15.30;;;;;;;-4.06;95.22;97057.05;103014;1310;24450;-72
2022/12/12 04:37:47;;;;;;;29.40;14.20;;;;;;;-4.06;95.12;97061.98;102980;1307;22547;-72
2022/12/12 04:40:20;;;;;;;28.20;13.50;;;;;;;-4.05;95.07;97066.04;103168;1300;22507;-72
2022/12/12 04:42:57;;;;;;;27.30;12.60;;;;;;;-4.06;95.05;97068.56;103060;1310;22481;-72
2022/12/12 04:45:30;;;;;;;22.30;11.90;;;;;;;-4.05;95.30;97066.36;102918;1307;138827;-72
2022/12/12 04:47:57;;;;;;;27.50;14.10;;;;;;;-4.06;94.93;97070.20;103139;1306;22502;-72
2022/12/12 04:50:27;;;;;;;26.00;13.30;;;;;;;-4.07;94.65;97073.00;103198;1285;138441;-72
2022/12/12 04:52:57;;;;;;;26.50;13.40;;;;;;;-4.07;94.96;97074.52;103168;1310;22607;-72
2022/12/12 04:55:28;;;;;;;27.80;13.30;;;;;;;-4.07;94.89;97073.63;103257;1291;25411;-72
2022/12/12 04:57:55;;;;;;;28.00;13.60;;;;;;;-4.07;95.25;97069.41;103129;1289;140319;-72
2022/12/12 05:00:23;;;;;;;21.90;11.80;;;;;;;-4.06;95.23;97068.97;103113;1289;25423;-72
2022/12/12 05:03:14;;;;;;;27.20;13.60;;;;;;;-4.06;95.03;97069.66;103251;1287;138356;-72
2022/12/12 05:05:50;;;;;;;28.80;12.80;;;;;;;-4.06;94.69;97069.99;103190;1284;25407;-71
2022/12/12 05:08:28;;;;;;;28.10;13.80;;;;;;;-4.06;94.80;97072.98;103239;1287;139408;-72
2022/12/12 05:10:59;;;;;;;27.10;12.80;;;;;;;-4.05;94.81;97077.70;103347;1313;22486;-72
2022/12/12 05:13:33;;;;;;;24.50;12.30;;;;;;;-4.05;95.19;97077.66;102939;1307;22471;-72
2022/12/12 05:16:03;;;;;;;26.00;12.80;;;;;;;-4.05;94.69;97082.11;103261;1309;138371;-72
2022/12/12 05:18:32;;;;;;;26.90;13.20;;;;;;;-4.05;94.48;97076.88;103283;1289;22493;-72
2022/12/12 05:21:01;;;;;;;26.70;13.50;;;;;;;-4.07;94.58;97075.39;103111;1313;138265;-72
2022/12/12 05:23:28;;;;;;;22.80;11.90;;;;;;;-4.07;95.10;97070.64;103065;1312;22495;-71
2022/12/12 05:25:55;;;;;;;28.50;12.50;;;;;;;-4.06;94.74;97072.52;103094;1297;140160;-72
2022/12/12 05:28:22;;;;;;;25.00;13.10;;;;;;;-4.06;94.68;97073.52;103177;1288;22472;-72
2022/12/12 05:30:48;;;;;;;25.40;12.10;;;;;;;-4.04;94.77;97074.43;103311;1303;22523;-71
2022/12/12 05:33:15;;;;;;;27.70;13.70;;;;;;;-4.04;95.20;97074.16;102571;1312;1261632;-72
2022/12/12 05:35:42;;;;;;;26.50;13.20;;;;;;;-4.03;95.09;97073.38;103097;1307;25565;-72
2022/12/12 05:38:09;;;;;;;27.10;13.80;;;;;;;-4.02;95.10;97070.77;104512;1312;138781;-72
2022/12/12 05:40:37;;;;;;;30.60;14.40;;;;;;;-4.00;94.85;97074.06;103182;1283;24333;-72
2022/12/12 05:43:03;;;;;;;29.40;14.10;;;;;;;-3.99;94.74;97074.83;103188;1290;24383;-71
2022/12/12 05:45:30;;;;;;;29.00;14.70;;;;;;;-3.98;94.84;97073.35;103063;1289;138476;-72
2022/12/12 05:47:57;;;;;;;30.20;13.90;;;;;;;-3.97;94.46;97071.61;103183;1289;25213;-72
2022/12/12 05:50:24;;;;;;;30.60;14.60;;;;;;;-3.96;94.85;97077.55;103155;1303;139084;-72
2022/12/12 05:52:51;;;;;;;29.70;13.60;;;;;;;-3.96;94.82;97078.61;103368;1298;25275;-72
2022/12/12 05:55:18;;;;;;;26.80;13.50;;;;;;;-3.95;94.43;97079.19;103115;1288;22547;-71
2022/12/12 05:57:44;;;;;;;28.60;14.30;;;;;;;-3.95;94.71;97083.08;103018;1312;139777;-71
2022/12/12 06:00:12;;;;;;;31.90;14.40;;;;;;;-3.95;94.86;97082.70;103076;1311;25564;-72
2022/12/12 06:02:39;;;;;;;28.10;13.80;;;;;;;-3.96;94.84;97086.52;102968;1290;138700;-71
2022/12/12 06:05:06;;;;;;;31.00;14.60;;;;;;;-3.96;94.76;97089.58;103152;1304;22588;-72
2022/12/12 06:07:33;;;;;;;28.50;14.10;;;;;;;-3.97;94.51;97091.61;103078;1291;22581;-71
2022/12/12 06:09:59;;;;;;;34.70;15.40;;;;;;;-3.97;94.62;97092.05;103091;1313;140465;-72
2022/12/12 06:12:26;;;;;;;30.10;14.70;;;;;;;-3.96;94.88;97093.71;103549;1288;22483;-71
2022/12/12 06:14:53;;;;;;;30.20;14.20;;;;;;;-3.95;94.90;97100.30;103067;1289;138246;-71
2022/12/12 06:17:20;;;;;;;30.10;14.20;;;;;;;-3.94;95.21;97106.57;103258;1296;22509;-71
2022/12/12 06:19:47;;;;;;;29.60;14.50;;;;;;;-3.95;95.14;97109.59;104069;1296;25297;-72
2022/12/12 06:22:14;;;;;;;28.30;13.30;;;;;;;-3.94;94.90;97109.48;103667;1288;138307;-72
2022/12/12 06:24:41;;;;;;;33.40;15.20;;;;;;;-3.94;95.12;97108.95;103925;1297;22856;-72
2022/12/12 06:27:08;;;;;;;30.10;13.70;;;;;;;-3.92;94.89;97113.23;103578;1298;138225;-72
2022/12/12 06:29:34;;;;;;;30.60;14.80;;;;;;;-3.92;94.88;97114.21;103940;1295;22524;-72
2022/12/12 06:32:02;;;;;;;31.80;15.10;;;;;;;-3.91;95.04;97116.77;103291;1296;138464;-72
2022/12/12 06:34:29;;;;;;;33.70;16.20;;;;;;;-3.90;95.08;97114.16;104714;1285;22467;-72
2022/12/12 06:36:56;;;;;;;31.70;14.60;;;;;;;-3.89;95.33;97114.91;103831;1305;24313;-71
2022/12/12 06:39:22;;;;;;;28.50;14.60;;;;;;;-3.88;95.23;97115.04;103057;1312;139219;-71
2022/12/12 06:41:49;;;;;;;30.60;14.30;;;;;;;-3.85;95.31;97116.55;103392;1293;25491;-72
2022/12/12 06:44:16;;;;;;;29.80;13.50;;;;;;;-3.83;94.97;97121.27;103217;1296;138909;-71
2022/12/12 06:46:43;;;;;;;29.90;13.90;;;;;;;-3.82;94.78;97122.02;103421;1294;25280;-71
2022/12/12 06:49:10;;;;;;;27.20;14.30;;;;;;;-3.81;94.67;97122.44;103676;1295;22492;-71
2022/12/12 06:51:42;;;;;;;28.60;14.50;;;;;;;-3.80;94.79;97123.96;103260;1291;138333;-71
2022/12/12 06:54:15;;;;;;;27.80;13.10;;;;;;;-3.77;94.91;97125.59;103536;1288;23377;-71
2022/12/12 06:56:42;;;;;;;27.20;13.60;;;;;;;-3.76;95.25;97122.75;103095;1288;138394;-71
2022/12/12 06:59:11;;;;;;;29.90;14.50;;;;;;;-3.74;94.74;97122.68;103199;1302;23095;-71
2022/12/12 07:01:39;;;;;;;29.60;14.70;;;;;;;-3.74;94.80;97126.89;103331;1283;25349;-71
2022/12/12 07:04:06;;;;;;;30.60;14.70;;;;;;;-3.73;94.73;97123.97;104116;1288;138642;-72
2022/12/12 07:06:33;;;;;;;28.80;14.50;;;;;;;-3.68;95.97;97126.89;104518;1295;27034;-72
2022/12/12 07:09:01;;;;;;;29.60;15.40;;;;;;;-3.43;97.49;97125.88;105193;1281;139037;-72
2022/12/12 07:11:28;;;;;;;28.30;14.00;;;;;;;-3.33;96.03;97131.46;104578;1288;22785;-72
2022/12/12 07:13:56;;;;;;;27.80;14.10;;;;;;;-3.28;95.20;97134.15;104213;1288;140415;-71
2022/12/12 07:16:23;;;;;;;28.10;14.20;;;;;;;-3.26;94.73;97133.95;104318;1297;22507;-72
2022/12/12 07:18:50;;;;;;;27.20;14.70;;;;;;;-3.24;94.51;97136.63;103349;1296;22555;-72
2022/12/12 07:21:19;;;;;;;31.30;15.90;;;;;;;-3.24;94.32;97136.59;103106;1311;138444;-71
2022/12/12 07:23:46;;;;;;;30.10;14.90;;;;;;;-3.23;94.11;97134.60;103353;1312;22494;-72
2022/12/12 07:26:19;;;;;;;27.80;14.40;;;;;;;-3.22;93.84;97136.25;103079;1312;139126;-72
2022/12/12 07:28:46;;;;;;;31.20;15.40;;;;;;;-3.23;93.94;97133.65;103200;1305;22598;-72
2022/12/12 07:31:16;;;;;;;33.10;16.10;;;;;;;-3.15;94.94;97135.73;103868;1288;22466;-72
2022/12/12 07:33:43;;;;;;;37.00;16.80;;;;;;;-3.03;94.65;97133.30;103390;1290;138453;-71
2022/12/12 07:36:12;;;;;;;30.60;15.80;;;;;;;-2.99;94.14;97136.74;103989;1298;24409;-71
2022/12/12 07:38:40;;;;;;;29.80;15.40;;;;;;;-2.98;93.49;97137.32;103204;1305;138267;-71
2022/12/12 07:41:10;;;;;;;31.80;14.90;;;;;;;-2.99;93.31;97138.63;103203;1303;22601;-71
2022/12/12 07:43:39;;;;;;;30.20;17.20;;;;;;;-2.98;93.33;97138.48;103150;1280;22480;-71
2022/12/12 07:46:08;;;;;;;;;;;;;;;-2.96;93.36;97136.31;103502;1303;138825;-71
2022/12/12 07:48:35;;;;;;;36.10;16.40;;;;;;;-2.96;93.36;97134.51;103281;1284;25219;-71
2022/12/12 07:51:02;;;;;;;33.30;16.70;;;;;;;-2.94;93.45;97135.42;103204;1302;138234;-72
2022/12/12 07:53:29;;;;;;;37.20;18.40;;;;;;;-2.92;93.42;97133.19;103754;1288;22505;-71
2022/12/12 07:55:56;;;;;;;33.10;16.60;;;;;;;-2.88;93.40;97132.82;103200;1310;141700;-73
2022/12/12 07:58:23;;;;;;;35.50;17.30;;;;;;;-2.84;93.28;97136.83;103448;1310;25286;-71
2022/12/12 08:00:50;;;;;;;39.80;17.70;;;;;;;-2.82;92.93;97139.02;103350;1283;22515;-71
2022/12/12 08:03:17;;;;;;;35.70;17.40;;;;;;;-2.79;93.20;97133.58;103373;1307;138392;-71
2022/12/12 08:05:44;;;;;;;38.20;18.20;;;;;;;-2.76;93.15;97136.35;104172;1311;22486;-71
2022/12/12 08:08:11;;;;;;;41.10;21.30;;;;;;;-2.72;92.93;97136.52;103835;1298;138933;-71
2022/12/12 08:10:39;;;;;;;41.70;19.40;;;;;;;-2.67;92.98;97133.60;103405;1288;25535;-71
2022/12/12 08:13:06;;;;;;;43.70;20.20;;;;;;;-2.63;92.79;97138.05;105223;1287;23302;-72
2022/12/12 08:15:33;;;;;;;39.10;19.00;;;;;;;-2.61;92.32;97138.92;103247;1291;138411;-71
2022/12/12 08:18:01;;;;;;;40.60;19.70;;;;;;;-2.56;92.47;97145.13;103439;1304;24059;-71
2022/12/12 08:20:27;;;;;;;43.10;19.60;;;;;;;-2.50;92.47;97147.12;103291;1289;138485;-72
2022/12/12 08:22:54;;;;;;;45.60;20.30;;;;;;;-2.45;92.38;97147.40;104333;1289;22488;-71
2022/12/12 08:25:21;;;;;;;45.30;21.40;;;;;;;-2.42;92.17;97147.13;104002;1288;22491;-72
2022/12/12 08:27:48;;;;;;;40.70;21.30;;;;;;;-2.36;92.06;97148.90;103156;1289;138268;-71
2022/12/12 08:30:15;;;;;;;39.00;19.00;;;;;;;-2.33;91.71;97147.80;103692;1297;22492;-72
2022/12/12 08:32:42;;;;;;;42.70;21.00;;;;;;;-2.30;91.70;97150.23;104124;1287;139126;-71
2022/12/12 08:35:09;;;;;;;38.90;18.60;;;;;;;-2.26;91.50;97152.41;103385;1296;24334;-72
2022/12/12 08:37:36;;;;;;;38.90;19.00;;;;;;;-2.21;91.35;97152.20;104206;1294;22233;-72
2022/12/12 08:40:04;;;;;;;41.40;19.90;;;;;;;-2.18;91.29;97151.20;103186;1313;138261;-72
2022/12/12 08:42:30;;;;;;;41.30;20.60;;;;;;;-2.12;91.35;97149.01;103186;1303;22471;-72
2022/12/12 08:44:57;;;;;;;43.60;21.40;;;;;;;-2.07;91.00;97149.44;103582;1295;138298;-72
2022/12/12 08:47:24;;;;;;;40.60;19.30;;;;;;;-2.04;90.76;97151.39;103240;1311;22491;-72
2022/12/12 08:49:51;;;;;;;41.20;20.00;;;;;;;-2.02;90.52;97155.91;103312;1298;22467;-72
2022/12/12 08:52:18;;;;;;;40.70;20.80;;;;;;;-2.01;90.34;97157.06;103510;1302;138563;-71
2022/12/12 08:54:45;;;;;;;38.00;19.30;;;;;;;-1.98;90.22;97160.23;103248;1306;22542;-71
2022/12/12 08:57:11;;;;;;;41.60;20.40;;;;;;;-1.98;89.80;97154.94;103043;1311;138525;-71
2022/12/12 08:59:38;;;;;;;39.40;20.40;;;;;;;-1.97;89.86;97157.36;103658;1289;24398;-71
2022/12/12 09:02:05;;;;;;;42.90;20.20;;;;;;;-1.94;89.92;97155.21;104411;1307;140676;-73
2022/12/12 09:04:33;;;;;;;37.80;19.20;;;;;;;-1.89;89.91;97154.30;104396;1281;22579;-72
2022/12/12 09:07:00;;;;;;;42.30;20.60;;;;;;;-1.85;89.40;97153.77;106117;1312;23065;-72
2022/12/12 09:09:27;;;;;;;42.00;21.10;;;;;;;-1.82;89.66;97152.27;104097;1288;138517;-72
2022/12/12 09:11:54;;;;;;;41.40;19.90;;;;;;;-1.76;89.42;97147.73;103418;1288;22508;-71
2022/12/12 09:14:21;;;;;;;43.10;20.50;;;;;;;-1.70;89.06;97149.52;103779;1312;138572;-71
2022/12/12 09:16:49;;;;;;;39.20;20.30;;;;;;;-1.68;89.09;97150.52;103609;1290;22499;-72
2022/12/12 09:19:16;;;;;;;42.40;21.50;;;;;;;-1.63;88.96;97147.21;103477;1289;24281;-71
2022/12/12 09:21:43;;;;;;;37.40;19.60;;;;;;;-1.55;89.28;97148.69;103216;1299;138217;-72
2022/12/12 09:24:09;;;;;;;38.10;20.20;;;;;;;-1.51;88.47;97151.54;103252;1289;24580;-72
2022/12/12 09:26:36;;;;;;;37.80;18.90;;;;;;;-1.46;88.44;97148.23;103054;1281;138920;-71
2022/12/12 09:29:04;;;;;;;42.60;20.10;;;;;;;-1.42;88.48;97151.52;103189;1284;24303;-72
2022/12/12 09:31:31;;;;;;;45.30;20.90;;;;;;;-1.38;88.16;97150.00;103102;1297;22556;-70
2022/12/12 09:33:58;;;;;;;39.20;19.00;;;;;;;-1.32;88.23;97149.24;103026;1289;139198;-71
2022/12/12 09:36:25;;;;;;;42.30;20.10;;;;;;;-1.27;87.56;97149.83;103062;1312;22494;-71
2022/12/12 09:38:52;;;;;;;36.80;20.10;;;;;;;-1.23;87.37;97154.84;103401;1293;138802;-72
2022/12/12 09:41:25;;;;;;;42.60;19.70;;;;;;;-1.21;87.13;97152.18;103355;1289;22516;-71
2022/12/12 09:44:01;;;;;;;35.90;19.30;;;;;;;-1.18;86.85;97145.94;103432;1285;22717;-71
2022/12/12 09:46:43;;;;;;;37.20;18.90;;;;;;;-1.14;86.92;97142.54;103419;1282;25303;-72
2022/12/12 09:49:35;;;;;;;42.70;20.30;;;;;;;-1.11;86.26;97143.82;103284;1290;26617;-72
2022/12/12 09:52:02;;;;;;;39.50;20.00;;;;;;;-1.05;86.68;97148.88;103080;1286;138148;-71
2022/12/12 09:54:29;;;;;;;43.60;20.20;;;;;;;-0.96;86.84;97153.17;103244;1290;26640;-71
2022/12/12 09:57:11;;;;;;;40.00;20.90;;;;;;;-0.87;86.57;97149.47;102943;1293;138379;-71
2022/12/12 10:00:03;;;;;;;40.40;20.40;;;;;;;-0.81;86.26;97146.64;103328;1290;25409;-72
2022/12/12 10:02:58;;;;;;;40.30;20.50;;;;;;;-0.68;86.14;97148.16;104316;1287;140950;-73
2022/12/12 10:06:02;;;;;;;35.40;20.00;;;;;;;-0.60;85.68;97150.52;103482;1313;23292;-72
2022/12/12 10:08:53;;;;;;;38.10;20.20;;;;;;;-0.47;85.82;97147.75;103071;1296;138725;-72
2022/12/12 10:11:53;;;;;;;36.80;19.90;;;;;;;-0.39;84.97;97143.91;103186;1311;22474;-71
2022/12/12 10:14:41;;;;;;;38.70;18.80;;;;;;;-0.32;84.40;97145.02;103773;1297;138944;-71
2022/12/12 10:17:36;;;;;;;37.80;18.30;;;;;;;-0.28;84.21;97146.20;103646;1290;24325;-71
2022/12/12 10:20:34;;;;;;;35.80;17.90;;;;;;;-0.27;83.68;97143.98;103809;1281;138510;-72
2022/12/12 10:23:15;;;;;;;37.80;19.10;;;;;;;-0.28;83.28;97145.87;103250;1298;22492;-71
2022/12/12 10:25:55;;;;;;;40.00;19.60;;;;;;;-0.24;83.51;97144.10;103314;1305;22581;-71
2022/12/12 10:28:26;;;;;;;45.70;20.60;;;;;;;-0.18;83.85;97145.45;103213;1313;140220;-72
2022/12/12 10:31:11;;;;;;;42.50;20.00;;;;;;;-0.18;83.13;97143.46;103112;1312;23928;-72
2022/12/12 10:33:47;;;;;;;36.40;19.80;;;;;;;-0.21;83.26;97141.38;103057;1312;138353;-72
2022/12/12 10:36:33;;;;;;;34.90;19.00;;;;;;;-0.27;82.89;97138.74;103177;1304;22578;-72
2022/12/12 10:39:42;;;;;;;34.90;18.70;;;;;;;-0.36;82.65;97142.50;103066;1312;138249;-72
2022/12/12 10:42:40;;;;;;;31.70;18.00;;;;;;;-0.49;82.63;97140.17;103135;1310;22498;-72
2022/12/12 10:45:31;;;;;;;36.00;18.60;;;;;;;-0.61;83.16;97140.31;103592;1295;139484;-73
2022/12/12 10:47:58;;;;;;;34.90;19.00;;;;;;;-0.65;83.14;97142.62;103618;1288;22518;-72
2022/12/12 10:50:33;;;;;;;31.60;17.60;;;;;;;-0.68;83.49;97136.82;106023;1297;139536;-73
2022/12/12 10:53:03;;;;;;;34.60;18.10;;;;;;;-0.72;83.36;97139.29;104024;1310;24273;-72
2022/12/12 10:55:52;;;;;;;30.60;16.60;;;;;;;-0.74;83.60;97137.69;103525;1310;22533;-72
2022/12/12 10:58:24;;;;;;;31.90;17.60;;;;;;;-0.80;83.57;97138.88;102821;1294;138500;-72
2022/12/12 11:01:00;;;;;;;35.80;18.20;;;;;;;-0.87;83.30;97139.16;103493;1304;22485;-72
2022/12/12 11:03:33;;;;;;;35.60;19.20;;;;;;;-0.95;83.67;97139.68;103848;1303;138372;-72
2022/12/12 11:06:04;;;;;;;33.10;17.50;;;;;;;-1.01;83.97;97138.58;103669;1295;22485;-71
2022/12/12 11:08:33;;;;;;;36.80;18.60;;;;;;;-1.05;84.38;97139.79;103399;1302;138870;-72
2022/12/12 11:11:38;;;;;;;32.00;17.30;;;;;;;-1.04;84.87;97137.70;103405;1296;22563;-72
2022/12/12 11:14:22;;;;;;;34.80;17.70;;;;;;;-1.00;84.99;97137.61;102080;1310;138821;-72
2022/12/12 11:16:49;;;;;;;34.80;17.50;;;;;;;-1.01;84.71;97136.80;102971;1302;22553;-72
2022/12/12 11:19:34;;;;;;;32.20;18.20;;;;;;;-1.04;84.75;97138.84;102097;1302;22547;-72
2022/12/12 11:22:03;;;;;;;35.60;18.30;;;;;;;-1.06;85.13;97135.93;101885;1310;138698;-72
2022/12/12 11:24:32;;;;;;;35.90;17.20;;;;;;;-1.06;85.13;97137.91;102694;1314;23230;-71
2022/12/12 11:27:01;;;;;;;;;;;;;;;-1.11;84.97;97141.60;102254;1313;138467;-71
2022/12/12 11:29:48;;;;;;;33.50;16.80;;;;;;;-1.14;85.37;97141.14;102022;1321;22482;-71
2022/12/12 11:32:30;;;;;;;33.80;18.00;;;;;;;-1.18;85.50;97139.00;102056;1300;139106;-71
2022/12/12 11:35:00;;;;;;;35.50;17.00;;;;;;;-1.24;85.19;97138.37;102246;1297;22494;-71
2022/12/12 11:37:38;;;;;;;36.20;18.60;;;;;;;-1.30;85.48;97135.48;102559;1297;24249;-71
2022/12/12 11:40:17;;;;;;;36.90;18.40;;;;;;;-1.38;85.53;97137.27;102021;1297;138320;-71
2022/12/12 11:42:44;;;;;;;35.10;18.40;;;;;;;-1.43;85.66;97138.33;102387;1319;24417;-71
2022/12/12 11:45:14;;;;;;;36.70;18.80;;;;;;;-1.47;86.06;97136.80;102955;1318;139004;-71
2022/12/12 11:47:46;;;;;;;37.10;17.50;;;;;;;-1.48;86.31;97134.98;102684;1281;22481;-72